Time;durP1;ratioP1;P1;durP2;ratioP2;P2;SDS_P1;SDS_P2;PMS_P1;PMS_P2;Temp;Humidity;BMP_temperature;BMP_pressure;BME280_temperature;BME280_humidity;BME280_pressure;Samples;Min_cycle;Max_cycle;Signal;HPM_P1;HPM_P2
2023/11/12 00:00:23;;;;;;;20.48;14.05;;;;;;;8.56;100.00;100485.03;5337289;27;20050;-73
2023/11/12 00:02:55;;;;;;;25.40;16.13;;;;;;;8.56;100.00;100474.59;5340290;27;20407;-73
2023/11/12 00:05:27;;;;;;;22.02;15.30;;;;;;;8.48;100.00;100476.06;5338290;27;20039;-73
2023/11/12 00:07:59;;;;;;;21.92;17.00;;;;;;;8.53;100.00;100478.31;5337869;27;20036;-72
2023/11/12 00:10:31;;;;;;;23.40;17.55;;;;;;;8.50;100.00;100482.00;5335355;27;20377;-73
2023/11/12 00:13:03;;;;;;;27.75;19.15;;;;;;;8.50;100.00;100483.78;5335351;27;20016;-72
2023/11/12 00:15:35;;;;;;;29.75;19.75;;;;;;;8.52;100.00;100482.72;5335522;27;20035;-72
2023/11/12 00:18:07;;;;;;;28.92;22.08;;;;;;;8.49;100.00;100477.72;5339032;27;20097;-72
2023/11/12 00:20:39;;;;;;;33.72;24.17;;;;;;;8.48;100.00;100480.44;5336722;27;20024;-72
2023/11/12 00:23:12;;;;;;;36.55;25.33;;;;;;;8.49;100.00;100469.91;5336102;27;20032;-73
2023/11/12 00:25:44;;;;;;;36.80;25.38;;;;;;;8.49;100.00;100471.69;5336106;27;20116;-72
2023/11/12 00:28:16;;;;;;;34.85;25.25;;;;;;;8.49;100.00;100469.91;5335931;27;20109;-73
2023/11/12 00:30:48;;;;;;;34.55;26.05;;;;;;;8.50;100.00;100474.16;5335468;27;20502;-73
2023/11/12 00:33:20;;;;;;;40.78;27.90;;;;;;;8.48;100.00;100468.22;5311653;27;20115;-73
2023/11/12 00:35:52;;;;;;;36.33;27.05;;;;;;;8.49;100.00;100469.06;5337789;27;20035;-72
2023/11/12 00:38:24;;;;;;;38.88;26.63;;;;;;;8.50;100.00;100468.94;5318222;27;20880;-73
2023/11/12 00:40:56;;;;;;;40.05;27.25;;;;;;;8.52;100.00;100472.25;5337055;27;20045;-73
2023/11/12 00:43:28;;;;;;;37.88;26.40;;;;;;;8.45;100.00;100460.66;5337153;27;20388;-73
2023/11/12 00:46:00;;;;;;;38.92;26.52;;;;;;;8.44;100.00;100464.19;5336821;27;20035;-73
2023/11/12 00:48:33;;;;;;;38.80;26.33;;;;;;;8.50;100.00;100466.31;5339266;27;20046;-72
2023/11/12 00:51:05;;;;;;;31.52;22.90;;;;;;;8.46;100.00;100458.88;5335055;27;20285;-73
2023/11/12 00:53:37;;;;;;;29.88;21.30;;;;;;;8.44;100.00;100461.59;5337500;27;20041;-73
2023/11/12 00:56:09;;;;;;;27.13;19.40;;;;;;;8.45;100.00;100463.28;5335202;27;20393;-73
2023/11/12 00:58:42;;;;;;;29.63;19.35;;;;;;;8.49;100.00;100462.06;5337600;27;20023;-73
2023/11/12 01:01:15;;;;;;;24.30;17.23;;;;;;;8.45;100.00;100458.06;5303610;28;20043;-73
2023/11/12 01:03:47;;;;;;;23.97;17.83;;;;;;;8.47;100.00;100457.91;5331425;27;20047;-73
2023/11/12 01:06:18;;;;;;;21.45;16.13;;;;;;;8.43;100.00;100454.72;5337269;27;20038;-73
2023/11/12 01:08:50;;;;;;;23.27;16.40;;;;;;;8.41;100.00;100451.44;5335119;27;20587;-73
2023/11/12 01:11:22;;;;;;;21.75;15.65;;;;;;;8.43;100.00;100453.91;5335873;27;20031;-73
2023/11/12 01:13:54;;;;;;;21.60;15.02;;;;;;;8.39;100.00;100444.66;5335174;27;20041;-73
2023/11/12 01:16:26;;;;;;;18.98;15.13;;;;;;;8.39;100.00;100445.50;5335522;27;20031;-73
2023/11/12 01:18:58;;;;;;;19.65;14.60;;;;;;;8.41;100.00;100450.56;5335621;27;20035;-73
2023/11/12 01:21:30;;;;;;;17.33;14.23;;;;;;;8.40;100.00;100446.31;5337879;27;20034;-73
2023/11/12 01:24:03;;;;;;;22.60;15.68;;;;;;;8.36;100.00;100444.88;5336491;27;20036;-73
2023/11/12 01:26:35;;;;;;;18.65;14.60;;;;;;;8.35;100.00;100443.22;5337069;27;20027;-73
2023/11/12 01:29:06;;;;;;;16.98;13.57;;;;;;;8.32;100.00;100443.47;5329105;27;20358;-73
2023/11/12 01:31:38;;;;;;;18.50;14.20;;;;;;;8.26;100.00;100437.00;5314440;27;20039;-73
2023/11/12 01:34:11;;;;;;;19.30;13.95;;;;;;;8.26;100.00;100450.03;5336863;27;20039;-73
2023/11/12 01:36:43;;;;;;;20.05;14.50;;;;;;;8.25;100.00;100438.75;5333141;27;20030;-73
2023/11/12 01:39:15;;;;;;;19.05;14.32;;;;;;;8.21;100.00;100442.56;5336735;27;20366;-73
2023/11/12 01:41:47;;;;;;;18.58;14.15;;;;;;;8.22;100.00;100443.38;5336792;27;20061;-73
2023/11/12 01:44:19;;;;;;;20.42;13.75;;;;;;;8.16;100.00;100433.47;5334276;27;20036;-73
2023/11/12 01:46:51;;;;;;;18.85;13.82;;;;;;;8.20;100.00;100447.91;5334032;27;20036;-73
2023/11/12 01:49:23;;;;;;;18.75;14.15;;;;;;;8.22;100.00;100439.03;5334449;27;20019;-73
2023/11/12 01:51:55;;;;;;;18.65;13.50;;;;;;;8.22;100.00;100432.94;5334205;27;20491;-72
2023/11/12 01:54:28;;;;;;;19.35;14.70;;;;;;;8.19;100.00;100435.84;5323827;27;20050;-73
2023/11/12 01:57:01;;;;;;;22.85;14.52;;;;;;;8.22;100.00;100438.16;5333847;27;20031;-73
2023/11/12 01:59:35;;;;;;;18.90;13.95;;;;;;;8.20;100.00;100430.47;5333096;27;20023;-73
2023/11/12 02:02:07;;;;;;;20.63;15.00;;;;;;;8.15;100.00;100430.03;5334680;27;20027;-73
2023/11/12 02:04:39;;;;;;;19.23;14.02;;;;;;;8.14;100.00;100433.56;5335133;27;20099;-72
2023/11/12 02:07:12;;;;;;;16.85;14.13;;;;;;;8.15;100.00;100434.44;5335266;27;20490;-73
2023/11/12 02:09:44;;;;;;;17.60;14.15;;;;;;;8.16;100.00;100438.69;5334494;27;20027;-73
2023/11/12 02:12:16;;;;;;;20.80;14.35;;;;;;;8.12;100.00;100439.88;5336521;27;20023;-73
2023/11/12 02:14:48;;;;;;;18.13;12.82;;;;;;;8.12;100.00;100442.50;5335884;27;20023;-73
2023/11/12 02:17:20;;;;;;;15.60;12.95;;;;;;;8.09;100.00;100440.94;5336823;27;20027;-73
2023/11/12 02:19:52;;;;;;;15.25;12.25;;;;;;;8.05;100.00;100442.16;5335474;27;20488;-73
2023/11/12 02:22:24;;;;;;;16.42;12.55;;;;;;;7.98;100.00;100441.00;5327220;27;20046;-73
2023/11/12 02:24:56;;;;;;;15.18;11.77;;;;;;;7.93;100.00;100443.16;5336680;27;20039;-73
2023/11/12 02:27:28;;;;;;;16.83;11.70;;;;;;;7.88;100.00;100430.47;5335921;27;20027;-73
2023/11/12 02:30:00;;;;;;;14.05;10.13;;;;;;;7.86;100.00;100442.81;5333873;27;20384;-73
2023/11/12 02:32:34;;;;;;;12.93;10.25;;;;;;;7.84;100.00;100444.72;5332563;27;20023;-73
2023/11/12 02:35:07;;;;;;;13.30;10.38;;;;;;;7.80;100.00;100449.34;5335840;27;20475;-73
2023/11/12 02:37:39;;;;;;;13.30;10.43;;;;;;;7.75;100.00;100442.81;5337294;27;20031;-73
2023/11/12 02:40:12;;;;;;;13.70;10.18;;;;;;;7.75;100.00;100441.03;5336506;27;20376;-73
2023/11/12 02:42:44;;;;;;;12.18;8.82;;;;;;;7.76;100.00;100436.66;5333823;27;20031;-73
2023/11/12 02:45:16;;;;;;;10.05;8.50;;;;;;;7.78;100.00;100440.81;5336285;27;20029;-73
2023/11/12 02:47:48;;;;;;;11.55;8.88;;;;;;;7.75;100.00;100435.81;5334700;27;20389;-73
2023/11/12 02:50:30;;;;;;;11.80;9.23;;;;;;;7.83;100.00;100435.22;5330223;27;20034;-73
2023/11/12 02:53:04;;;;;;;10.80;8.57;;;;;;;7.69;100.00;100441.56;5335759;27;20030;-73
2023/11/12 02:55:37;;;;;;;11.10;8.80;;;;;;;7.64;100.00;100441.06;5336837;27;20030;-73
2023/11/12 02:58:10;;;;;;;12.10;8.88;;;;;;;7.61;100.00;100440.47;5334970;27;20019;-72
2023/11/12 03:00:41;;;;;;;13.13;7.80;;;;;;;7.62;100.00;100439.53;5336135;27;20035;-73
2023/11/12 03:03:14;;;;;;;10.25;8.43;;;;;;;7.60;100.00;100441.44;5334711;28;20045;-72
2023/11/12 03:05:47;;;;;;;10.85;8.63;;;;;;;7.64;100.00;100442.84;5336231;27;20037;-73
2023/11/12 03:08:21;;;;;;;10.50;8.05;;;;;;;7.55;100.00;100434.81;5335677;28;20038;-73
2023/11/12 03:10:54;;;;;;;10.32;8.18;;;;;;;7.53;100.00;100431.47;5334575;28;20327;-73
2023/11/12 03:13:26;;;;;;;8.70;7.75;;;;;;;7.56;100.00;100436.44;5333756;28;20023;-73
2023/11/12 03:15:58;;;;;;;9.30;8.30;;;;;;;7.55;100.00;100442.63;5333894;28;20487;-73
2023/11/12 03:18:29;;;;;;;10.38;8.30;;;;;;;7.54;100.00;100432.34;5329769;28;20027;-73
2023/11/12 03:21:03;;;;;;;9.57;7.88;;;;;;;7.56;100.00;100441.66;5335951;27;20081;-73
2023/11/12 03:23:37;;;;;;;15.85;8.63;;;;;;;7.56;100.00;100446.88;5335616;28;20457;-73
2023/11/12 03:26:10;;;;;;;12.77;8.60;;;;;;;7.56;100.00;100444.28;5332445;28;20034;-73
2023/11/12 03:28:42;;;;;;;11.10;8.68;;;;;;;7.54;100.00;100445.38;5331870;28;20516;-73
2023/11/12 03:31:13;;;;;;;12.90;8.88;;;;;;;7.53;100.00;100444.50;5331918;28;20022;-73
2023/11/12 03:33:46;;;;;;;12.23;8.70;;;;;;;7.54;100.00;100434.94;5332619;28;20023;-73
2023/11/12 03:36:18;;;;;;;12.00;9.13;;;;;;;7.53;100.00;100430.66;5333539;28;20031;-73
2023/11/12 03:38:50;;;;;;;10.83;9.30;;;;;;;7.57;100.00;100421.63;5334896;28;20051;-73
2023/11/12 03:41:22;;;;;;;11.77;8.98;;;;;;;7.57;100.00;100429.47;5314702;28;20043;-73
2023/11/12 03:43:54;;;;;;;10.10;9.07;;;;;;;7.57;100.00;100427.69;5319027;28;20035;-73
2023/11/12 03:46:27;;;;;;;11.52;9.48;;;;;;;7.53;100.00;100422.84;5334330;28;20039;-73
2023/11/12 03:48:59;;;;;;;13.23;10.10;;;;;;;7.54;100.00;100422.72;5335086;28;20035;-73
2023/11/12 03:51:32;;;;;;;12.90;10.02;;;;;;;7.54;100.00;100419.28;5336050;28;20437;-72
2023/11/12 03:54:04;;;;;;;14.10;9.55;;;;;;;7.52;100.00;100421.19;5334937;28;20031;-73
2023/11/12 03:56:36;;;;;;;12.32;10.23;;;;;;;7.48;100.00;100423.19;5335056;28;20027;-73
2023/11/12 03:59:07;;;;;;;10.82;9.20;;;;;;;7.49;100.00;100424.03;5335149;28;20365;-73
2023/11/12 04:01:39;;;;;;;12.55;9.68;;;;;;;7.46;100.00;100413.84;5331286;28;20039;-73
2023/11/12 04:04:11;;;;;;;15.95;10.40;;;;;;;7.44;100.00;100415.75;5334147;28;20033;-73
2023/11/12 04:06:44;;;;;;;14.18;9.55;;;;;;;7.43;100.00;100412.31;5336293;27;20040;-73
2023/11/12 04:09:16;;;;;;;12.73;10.32;;;;;;;7.43;100.00;100412.31;5340157;27;20030;-73
2023/11/12 04:11:48;;;;;;;13.25;10.70;;;;;;;7.39;100.00;100413.50;5327590;27;20492;-73
2023/11/12 04:14:20;;;;;;;12.40;10.60;;;;;;;7.36;100.00;100413.75;5338186;27;20038;-73
2023/11/12 04:16:52;;;;;;;14.65;11.13;;;;;;;7.36;100.00;100412.91;5337357;27;20027;-72
2023/11/12 04:19:26;;;;;;;16.40;11.68;;;;;;;7.35;100.00;100406.03;5338790;27;20034;-73
2023/11/12 04:21:58;;;;;;;16.40;11.75;;;;;;;7.30;100.00;100414.22;5338043;27;20392;-72
2023/11/12 04:24:30;;;;;;;15.95;12.27;;;;;;;7.31;100.00;100415.84;5337575;27;20042;-72
2023/11/12 04:27:02;;;;;;;14.30;11.57;;;;;;;7.28;100.00;100418.72;5335871;27;20042;-72
2023/11/12 04:29:35;;;;;;;16.38;11.68;;;;;;;7.27;100.00;100419.66;5337370;27;20019;-73
2023/11/12 04:32:08;;;;;;;19.20;13.07;;;;;;;7.23;100.00;100418.22;5335408;27;20030;-73
2023/11/12 04:34:40;;;;;;;15.13;12.50;;;;;;;7.25;100.00;100416.34;5337853;27;20035;-72
2023/11/12 04:37:13;;;;;;;16.97;12.47;;;;;;;7.24;100.00;100410.31;5336677;27;20027;-73
2023/11/12 04:39:45;;;;;;;16.75;12.60;;;;;;;7.19;100.00;100409.81;5328621;27;20026;-73
2023/11/12 04:42:17;;;;;;;16.05;13.05;;;;;;;7.10;100.00;100412.34;5338382;27;20027;-72
2023/11/12 04:44:49;;;;;;;14.57;12.65;;;;;;;7.16;100.00;100417.06;5338586;27;20028;-73
2023/11/12 04:47:21;;;;;;;16.77;13.38;;;;;;;7.11;100.00;100413.97;5337092;27;20464;-72
2023/11/12 04:49:53;;;;;;;16.63;13.70;;;;;;;7.06;100.00;100422.16;5337965;27;20030;-73
2023/11/12 04:52:26;;;;;;;17.25;13.20;;;;;;;7.01;100.00;100419.91;5338023;27;20029;-73
2023/11/12 04:54:58;;;;;;;19.52;13.85;;;;;;;7.02;100.00;100418.97;5337365;27;20051;-73
2023/11/12 04:57:30;;;;;;;18.20;14.02;;;;;;;7.01;100.00;100425.13;5335821;27;20045;-73
2023/11/12 05:00:02;;;;;;;19.52;14.65;;;;;;;6.94;100.00;100429.13;5337918;27;20030;-73
2023/11/12 05:02:34;;;;;;;18.67;15.02;;;;;;;6.94;100.00;100436.13;5337288;27;20031;-73
2023/11/12 05:05:07;;;;;;;21.65;16.80;;;;;;;6.92;100.00;100431.00;5337026;27;20038;-73
2023/11/12 05:07:38;;;;;;;25.70;17.43;;;;;;;6.95;100.00;100430.78;5329891;27;20512;-72
2023/11/12 05:10:11;;;;;;;25.90;17.38;;;;;;;6.87;100.00;100432.31;5335530;27;20043;-73
2023/11/12 05:12:43;;;;;;;27.65;18.73;;;;;;;6.93;100.00;100435.28;5338953;27;21328;-72
2023/11/12 05:15:14;;;;;;;26.30;16.75;;;;;;;6.89;100.00;100428.63;5335336;27;20023;-72
2023/11/12 05:17:46;;;;;;;26.75;16.80;;;;;;;6.86;100.00;100428.03;5333399;27;20061;-73
2023/11/12 05:20:18;;;;;;;52.40;18.42;;;;;;;6.80;100.00;100434.56;5337445;27;20031;-73
2023/11/12 05:22:52;;;;;;;43.85;16.63;;;;;;;6.83;100.00;100442.13;5336092;27;20034;-73
2023/11/12 05:25:24;;;;;;;33.47;15.98;;;;;;;6.76;100.00;100448.75;5327580;27;20053;-72
2023/11/12 05:27:56;;;;;;;46.95;15.70;;;;;;;6.77;100.00;100451.22;5335607;27;20030;-73
2023/11/12 05:30:28;;;;;;;67.25;16.23;;;;;;;6.72;100.00;100452.53;5338206;27;20041;-73
2023/11/12 05:33:01;;;;;;;47.30;15.88;;;;;;;6.68;100.00;100451.09;5333493;27;20020;-73
2023/11/12 05:35:33;;;;;;;37.97;15.48;;;;;;;6.70;100.00;100450.03;5332400;27;20019;-73
2023/11/12 05:38:05;;;;;;;33.53;15.43;;;;;;;6.65;100.00;100453.94;5336239;27;20023;-72
2023/11/12 05:40:38;;;;;;;33.58;14.95;;;;;;;6.62;100.00;100462.78;5334335;27;20039;-72
2023/11/12 05:43:10;;;;;;;;;;;;;;;7.34;100.00;100474.72;5337679;27;20031;-72
2023/11/12 05:45:42;;;;;;;50.95;14.88;;;;;;;6.54;100.00;100454.72;5335160;27;20279;-73
2023/11/12 05:48:15;;;;;;;41.25;14.77;;;;;;;6.51;100.00;100465.34;5333839;27;20031;-72
2023/11/12 05:50:48;;;;;;;37.53;14.90;;;;;;;6.54;100.00;100472.94;5337599;27;20035;-73
2023/11/12 05:53:20;;;;;;;52.20;15.57;;;;;;;6.48;100.00;100471.63;5336017;27;20023;-72
2023/11/12 05:55:52;;;;;;;32.00;15.38;;;;;;;6.52;100.00;100465.25;5334957;27;20029;-72
2023/11/12 05:58:24;;;;;;;69.57;16.42;;;;;;;6.57;100.00;100477.91;5318030;27;20469;-73
2023/11/12 06:00:58;;;;;;;62.35;15.30;;;;;;;6.54;100.00;100480.75;5313434;27;20039;-73
2023/11/12 06:03:30;;;;;;;54.30;16.35;;;;;;;6.53;100.00;100466.09;5305942;28;20035;-73
2023/11/12 06:06:02;;;;;;;50.88;15.68;;;;;;;6.56;100.00;100474.50;5313926;28;20031;-73
2023/11/12 06:08:34;;;;;;;56.33;15.98;;;;;;;6.48;100.00;100471.63;5313703;28;20046;-73
2023/11/12 06:11:06;;;;;;;61.38;17.35;;;;;;;6.54;100.00;100468.56;5312513;28;20101;-73
2023/11/12 06:13:38;;;;;;;50.40;16.07;;;;;;;6.54;100.00;100468.56;5315746;28;20046;-73
2023/11/12 06:16:10;;;;;;;67.90;15.20;;;;;;;6.58;100.00;100470.00;5314329;28;20042;-73
2023/11/12 06:18:43;;;;;;;98.72;17.42;;;;;;;6.56;100.00;100466.69;5309851;28;20019;-73
2023/11/12 06:21:14;;;;;;;56.78;14.77;;;;;;;6.57;100.00;100462.31;5310988;28;20031;-73
2023/11/12 06:23:46;;;;;;;64.65;14.52;;;;;;;6.53;100.00;100464.31;5313866;28;20035;-73
2023/11/12 06:26:21;;;;;;;58.08;14.50;;;;;;;6.50;100.00;100461.09;5314877;28;20036;-73
2023/11/12 06:28:52;;;;;;;43.60;13.70;;;;;;;6.58;100.00;100453.53;5310690;28;20023;-73
2023/11/12 06:31:24;;;;;;;53.25;14.82;;;;;;;6.57;100.00;100460.53;5312539;28;20031;-73
2023/11/12 06:33:56;;;;;;;67.07;13.70;;;;;;;6.53;100.00;100463.47;5311813;28;20055;-73
2023/11/12 06:36:28;;;;;;;47.50;14.15;;;;;;;6.53;100.00;100466.91;5312914;28;20047;-73
2023/11/12 06:39:00;;;;;;;22.55;12.95;;;;;;;6.59;100.00;100470.81;5313765;28;20031;-73
2023/11/12 06:41:33;;;;;;;44.15;13.00;;;;;;;6.55;100.00;100475.44;5312847;28;20065;-72
2023/11/12 06:44:04;;;;;;;58.38;14.70;;;;;;;6.59;100.00;100489.03;5312410;28;20023;-73
2023/11/12 06:46:42;;;;;;;39.05;13.32;;;;;;;6.56;100.00;100491.88;5313544;28;20362;-73
2023/11/12 06:49:14;;;;;;;79.10;14.52;;;;;;;6.43;100.00;100480.69;5313757;28;20036;-73
2023/11/12 06:51:46;;;;;;;47.30;12.20;;;;;;;6.50;100.00;100495.75;5314466;28;20027;-73
2023/11/12 06:54:17;;;;;;;94.70;14.05;;;;;;;6.44;100.00;100501.44;5314260;28;20057;-73
2023/11/12 06:56:49;;;;;;;51.80;12.52;;;;;;;6.43;100.00;100499.75;5314663;28;20027;-73
2023/11/12 06:59:21;;;;;;;51.17;12.27;;;;;;;6.38;100.00;100509.66;5314448;28;20042;-73
2023/11/12 07:01:54;;;;;;;55.53;13.00;;;;;;;6.40;100.00;100502.56;5330984;28;20043;-73
2023/11/12 07:04:25;;;;;;;41.47;11.55;;;;;;;6.44;100.00;100495.38;5336740;27;20392;-73
2023/11/12 07:06:57;;;;;;;53.45;11.90;;;;;;;6.37;100.00;100494.19;5333043;27;20050;-73
2023/11/12 07:09:29;;;;;;;56.25;13.07;;;;;;;6.45;100.00;100504.84;5333889;27;20027;-73
2023/11/12 07:12:01;;;;;;;63.55;12.73;;;;;;;6.46;100.00;100507.34;5334596;28;20484;-73
2023/11/12 07:14:33;;;;;;;30.20;11.27;;;;;;;6.44;100.00;100506.63;5335127;28;20403;-73
2023/11/12 07:17:06;;;;;;;49.97;12.00;;;;;;;6.43;100.00;100502.34;5335944;28;20037;-73
2023/11/12 07:19:41;;;;;;;33.17;12.27;;;;;;;6.56;100.00;100512.72;5334626;27;20023;-73
2023/11/12 07:22:13;;;;;;;27.70;11.60;;;;;;;6.46;100.00;100509.09;5319593;28;20058;-73
2023/11/12 07:24:45;;;;;;;40.10;11.68;;;;;;;6.44;100.00;100501.44;5332594;28;20024;-72
2023/11/12 07:27:17;;;;;;;34.72;11.35;;;;;;;6.51;100.00;100507.81;5334815;28;20494;-73
2023/11/12 07:29:49;;;;;;;27.13;10.40;;;;;;;6.49;100.00;100496.72;5334616;28;20031;-75
2023/11/12 07:32:21;;;;;;;28.17;10.82;;;;;;;6.49;100.00;100503.69;5333293;28;20033;-73
2023/11/12 07:34:53;;;;;;;42.92;10.52;;;;;;;6.52;100.00;100506.06;5329853;28;20481;-73
2023/11/12 07:37:25;;;;;;;18.25;9.40;;;;;;;6.52;100.00;100509.50;5330217;28;20392;-72
2023/11/12 07:39:57;;;;;;;29.50;10.93;;;;;;;6.56;100.00;100516.13;5335708;27;20284;-72
2023/11/12 07:42:29;;;;;;;29.38;10.13;;;;;;;6.49;100.00;100520.13;5340129;27;20034;-72
2023/11/12 07:45:01;;;;;;;23.98;9.63;;;;;;;6.51;100.00;100533.84;5339885;27;20027;-72
2023/11/12 07:47:33;;;;;;;31.92;11.10;;;;;;;6.53;100.00;100524.16;5317033;27;20038;-72
2023/11/12 07:50:05;;;;;;;17.33;9.85;;;;;;;6.60;100.00;100532.38;5317684;27;20032;-73
2023/11/12 07:52:39;;;;;;;27.53;10.83;;;;;;;6.60;100.00;100519.34;5318000;28;20036;-72
2023/11/12 07:55:11;;;;;;;31.85;11.32;;;;;;;6.62;100.00;100529.63;5315140;28;20036;-72
2023/11/12 07:57:43;;;;;;;15.65;10.05;;;;;;;6.56;100.00;100518.75;5315736;28;20024;-74
2023/11/12 08:00:15;;;;;;;35.53;11.10;;;;;;;6.60;100.00;100527.16;5314519;28;20059;-72
2023/11/12 08:02:48;;;;;;;34.03;10.52;;;;;;;6.56;100.00;100536.97;5315046;28;20038;-72
2023/11/12 08:05:20;;;;;;;24.13;10.60;;;;;;;6.60;100.00;100534.13;5316216;28;20416;-72
2023/11/12 08:07:52;;;;;;;26.73;10.30;;;;;;;6.64;100.00;100536.41;5317085;28;20032;-73
2023/11/12 08:10:24;;;;;;;14.63;9.80;;;;;;;6.70;100.00;100535.09;5317203;28;20493;-73
2023/11/12 08:12:56;;;;;;;16.23;10.13;;;;;;;6.69;100.00;100543.88;5313952;28;20046;-73
2023/11/12 08:15:28;;;;;;;23.23;10.80;;;;;;;6.78;100.00;100546.63;5320945;27;20027;-72
2023/11/12 08:18:00;;;;;;;28.30;9.77;;;;;;;6.75;100.00;100548.63;5336856;27;20046;-73
2023/11/12 08:20:35;;;;;;;18.05;8.70;;;;;;;6.86;100.00;100548.69;5338424;27;20030;-73
2023/11/12 08:23:07;;;;;;;15.93;9.73;;;;;;;6.86;100.00;100566.03;5337780;27;20027;-73
2023/11/12 08:25:39;;;;;;;21.73;10.15;;;;;;;6.85;100.00;100560.00;5336175;27;20034;-73
2023/11/12 08:28:12;;;;;;;17.83;9.20;;;;;;;6.89;100.00;100560.63;5338249;27;20035;-73
2023/11/12 08:30:44;;;;;;;18.40;9.75;;;;;;;6.90;100.00;100565.72;5335055;27;20042;-73
2023/11/12 08:33:17;;;;;;;22.05;8.52;;;;;;;6.88;100.00;100558.97;5338629;27;20039;-73
2023/11/12 08:35:48;;;;;;;21.70;8.80;;;;;;;6.90;100.00;100563.13;5339181;27;20027;-73
2023/11/12 08:38:21;;;;;;;19.25;8.07;;;;;;;6.94;100.00;100554.13;5332070;27;20039;-73
2023/11/12 08:40:54;;;;;;;11.38;8.27;;;;;;;6.98;100.00;100573.81;5334360;27;20031;-73
2023/11/12 08:43:27;;;;;;;18.83;8.15;;;;;;;7.00;100.00;100565.88;5322386;27;20603;-72
2023/11/12 08:45:59;;;;;;;20.27;7.75;;;;;;;6.96;100.00;100569.63;5333479;27;20620;-73
2023/11/12 08:48:32;;;;;;;16.58;8.02;;;;;;;6.96;100.00;100573.06;5333782;27;20039;-73
2023/11/12 08:51:04;;;;;;;13.95;8.15;;;;;;;7.04;100.00;100570.72;5334989;27;20382;-73
2023/11/12 08:53:37;;;;;;;15.48;7.78;;;;;;;7.01;100.00;100575.34;5335729;27;20031;-73
2023/11/12 08:56:09;;;;;;;10.68;7.75;;;;;;;7.06;100.00;100578.44;5334343;27;20042;-73
2023/11/12 08:58:41;;;;;;;13.35;8.05;;;;;;;7.01;100.00;100570.97;5335817;27;20039;-73
2023/11/12 09:01:14;;;;;;;10.43;7.93;;;;;;;6.99;100.00;100572.03;5333721;27;20048;-73
2023/11/12 09:03:46;;;;;;;11.88;8.02;;;;;;;7.03;100.00;100574.28;5335910;27;20027;-73
2023/11/12 09:06:18;;;;;;;13.38;8.15;;;;;;;7.07;100.00;100573.09;5317513;27;20057;-73
2023/11/12 09:08:50;;;;;;;12.37;8.50;;;;;;;7.14;100.00;100575.25;5333932;27;20031;-73
2023/11/12 09:11:22;;;;;;;11.80;8.35;;;;;;;7.21;100.00;100574.69;5322375;27;20511;-73
2023/11/12 09:13:55;;;;;;;14.05;8.60;;;;;;;7.22;100.00;100572.91;5329872;27;20031;-73
2023/11/12 09:16:27;;;;;;;13.90;9.45;;;;;;;7.26;100.00;100566.53;5331364;27;20361;-73
2023/11/12 09:19:00;;;;;;;13.13;8.60;;;;;;;7.28;100.00;100559.44;5334497;27;20035;-73
2023/11/12 09:21:31;;;;;;;13.03;8.60;;;;;;;7.31;100.00;100562.63;5313678;27;20396;-73
2023/11/12 09:24:04;;;;;;;11.10;7.68;;;;;;;7.31;100.00;100564.38;5329004;27;20303;-73
2023/11/12 09:26:36;;;;;;;9.27;7.90;;;;;;;7.30;100.00;100560.13;5331633;27;20042;-72
2023/11/12 09:29:08;;;;;;;10.38;8.23;;;;;;;7.33;100.00;100562.50;5314735;27;20034;-73
2023/11/12 09:31:39;;;;;;;9.02;7.80;;;;;;;7.33;100.00;100575.53;5331633;27;20488;-73
2023/11/12 09:34:11;;;;;;;10.20;8.32;;;;;;;7.38;100.00;100570.81;5335537;27;20038;-73
2023/11/12 09:36:43;;;;;;;10.57;9.18;;;;;;;7.48;100.00;100568.34;5336043;27;20041;-73
2023/11/12 09:39:16;;;;;;;10.98;9.43;;;;;;;7.51;100.00;100574.16;5326116;27;20425;-73
2023/11/12 09:41:51;;;;;;;;;;;;;;;8.24;100.00;100572.81;5311706;27;20039;-73
2023/11/12 09:44:26;;;;;;;10.90;8.63;;;;;;;7.85;100.00;100573.34;5333397;27;19922;-72
2023/11/12 09:47:29;;;;;;;15.68;10.02;;;;;;;8.06;100.00;100574.25;5334716;27;20478;-73
2023/11/12 09:50:04;;;;;;;10.40;8.95;;;;;;;7.85;100.00;100570.72;5335779;27;20377;-73
2023/11/12 09:52:36;;;;;;;13.10;9.68;;;;;;;7.83;100.00;100563.00;5335045;27;20038;-73
2023/11/12 09:55:10;;;;;;;12.60;9.15;;;;;;;7.83;100.00;100563.00;5335061;27;20029;-73
2023/11/12 09:57:44;;;;;;;12.40;9.40;;;;;;;7.99;100.00;100570.47;5334818;27;20023;-73
2023/11/12 10:00:17;;;;;;;9.10;8.05;;;;;;;7.90;100.00;100579.84;5336858;27;20038;-74
2023/11/12 10:02:49;;;;;;;10.07;8.32;;;;;;;7.94;100.00;100576.03;5333980;27;20035;-73
2023/11/12 10:05:21;;;;;;;9.23;8.25;;;;;;;7.92;100.00;100570.13;5336154;27;20829;-74
2023/11/12 10:07:53;;;;;;;9.43;8.43;;;;;;;7.86;100.00;100569.78;5334916;27;20031;-73
2023/11/12 10:10:27;;;;;;;9.68;8.07;;;;;;;7.93;100.00;100563.97;5336490;27;20039;-73
2023/11/12 10:12:59;;;;;;;10.75;7.88;;;;;;;7.99;100.00;100571.31;5334767;27;20027;-73
2023/11/12 10:15:36;;;;;;;9.57;8.33;;;;;;;8.11;100.00;100574.75;5336988;27;20031;-74
2023/11/12 10:18:07;;;;;;;8.75;7.85;;;;;;;8.02;100.00;100568.44;5337828;27;20277;-74
2023/11/12 10:20:40;;;;;;;8.52;7.63;;;;;;;8.03;100.00;100577.94;5337602;27;20404;-73
2023/11/12 10:23:22;;;;;;;11.63;8.27;;;;;;;8.31;100.00;100577.56;5338415;27;20630;-73
2023/11/12 10:25:55;;;;;;;10.50;9.07;;;;;;;8.26;100.00;100585.75;5334042;27;20062;-74
2023/11/12 10:28:36;;;;;;;9.73;7.50;;;;;;;8.48;100.00;100582.25;5334080;27;20023;-73
2023/11/12 10:31:13;;;;;;;8.32;7.53;;;;;;;8.31;100.00;100578.38;5333341;27;20027;-74
2023/11/12 10:33:58;;;;;;;10.30;7.85;;;;;;;8.59;100.00;100587.47;5317694;27;20036;-74
2023/11/12 10:36:30;;;;;;;8.38;7.20;;;;;;;8.43;100.00;100587.03;5313384;28;20035;-73
2023/11/12 10:39:09;;;;;;;8.70;7.78;;;;;;;8.46;100.00;100582.41;5315502;28;20025;-73
2023/11/12 10:41:41;;;;;;;10.43;7.97;;;;;;;8.50;100.00;100585.59;5315220;28;20035;-74
2023/11/12 10:44:13;;;;;;;8.30;7.47;;;;;;;8.50;100.00;100583.81;5313365;28;20034;-73
2023/11/12 10:46:52;;;;;;;12.57;7.82;;;;;;;8.57;100.00;100578.94;5314946;28;20426;-74
2023/11/12 10:49:24;;;;;;;9.40;7.88;;;;;;;8.61;100.00;100587.34;5314172;28;20028;-74
2023/11/12 10:52:00;;;;;;;12.75;7.85;;;;;;;8.67;100.00;100598.09;5334261;27;20031;-73
2023/11/12 10:54:32;;;;;;;9.35;7.40;;;;;;;8.67;100.00;100597.28;5336387;27;20027;-73
2023/11/12 10:57:05;;;;;;;10.93;8.05;;;;;;;8.70;100.00;100604.88;5331859;27;20023;-73
2023/11/12 10:59:39;;;;;;;8.75;7.82;;;;;;;8.78;100.00;100603.28;5312736;27;20031;-73
2023/11/12 11:02:17;;;;;;;11.02;8.10;;;;;;;8.74;100.00;100595.84;5326923;27;20058;-73
2023/11/12 11:04:50;;;;;;;10.05;8.70;;;;;;;8.72;100.00;100605.59;5334331;27;20418;-73
2023/11/12 11:07:23;;;;;;;13.27;8.90;;;;;;;8.81;100.00;100590.94;5311419;27;20041;-74
2023/11/12 11:09:56;;;;;;;13.73;8.68;;;;;;;8.84;100.00;100594.16;5335842;27;20038;-74
2023/11/12 11:12:28;;;;;;;10.13;8.07;;;;;;;8.91;100.00;100589.25;5334379;28;20030;-73
2023/11/12 11:15:37;;;;;;;9.23;8.32;;;;;;;9.22;100.00;100598.81;5336906;27;20476;-74
2023/11/12 11:18:28;;;;;;;10.77;8.65;;;;;;;9.22;100.00;100592.78;5340261;27;20452;-74
2023/11/12 11:21:02;;;;;;;10.82;8.85;;;;;;;9.11;100.00;100595.44;5342219;27;20408;-73
2023/11/12 11:23:47;;;;;;;11.23;8.57;;;;;;;9.25;100.00;100595.97;5342979;27;20396;-74
2023/11/12 11:26:27;;;;;;;12.15;10.10;;;;;;;9.33;100.00;100600.56;5340712;27;20513;-74
2023/11/12 11:29:05;;;;;;;13.20;9.73;;;;;;;9.34;100.00;100596.97;5332949;27;20039;-73
2023/11/12 11:31:38;;;;;;;12.07;10.27;;;;;;;9.43;100.00;100600.59;5342600;27;20519;-73
2023/11/12 11:34:12;;;;;;;11.25;9.77;;;;;;;9.56;100.00;100597.81;5342236;27;20031;-73
2023/11/12 11:37:00;;;;;;;12.23;10.27;;;;;;;9.89;100.00;100604.56;5340675;27;20031;-74
2023/11/12 11:39:32;;;;;;;12.77;10.48;;;;;;;9.80;100.00;100607.97;5342662;27;20019;-74